Terminal Aerodrome Forecast
Issued by NWS

Home | Current Version | Previous Version | Text Only | Print | Product List | Glossary On
Versions: 1 2 3 4 5 6 7 8 9 10 11 12 13 14 15
000
FTUS45 KTFX 300520
TAFLWT
TAF
KLWT 300520Z 3006/0106 VRB06KT P6SM VCSH SCT070 BKN120
     FM300800 14007KT P6SM SCT120
     FM301700 29007KT P6SM SCT150
     FM010000 14007KT P6SM SCT100 BKN180=

USA.gov is the U.S. government's official web portal to all federal, state and local government web resources and services.